Погода Хентис Байна 2 недели

Карас, Намибия

22 февраля-06 марта
  • 22февраля
    Сегодня
    +23°
    +39°
    Небольшая облачность
    ВремяПогодаТемператураВлажностьДавлениеВетер, м/сВероятность осадков
    02:00Ясно и безоблачно+26°C28 %686 мм0.4 м/с5 %
    05:00Небольшая облачность+24°C30 %684 мм0.9 м/с5 %
    08:00Практически безоблачно+26°C26 %685 мм1.0 м/с5 %
    11:00Практически безоблачно+35°C21 %687 мм2.1 м/с5 %
    14:00Небольшая облачность+38°C18 %686 мм3.2 м/с5 %
    17:00Практически безоблачно+36°C20 %685 мм4.8 м/с12 %
    20:00Небольшая облачность+30°C27 %686 мм4.6 м/с5 %
    23:00Небольшая облачность+27°C33 %686 мм1.9 м/с4 %
  • 23февраля
    Пятница
    +19°
    +40°
    Небольшая облачность
    ВремяПогодаТемператураВлажностьДавлениеВетер, м/сВероятность осадков
    02:00Небольшая облачность+25°C38 %685 мм0.8 м/с5 %
    05:00Облачно с прояснениями+24°C41 %684 мм1.4 м/с3 %
    08:00Облачно с прояснениями+25°C42 %685 мм0.3 м/с3 %
    11:00Практически безоблачно+35°C24 %687 мм2.0 м/с5 %
    14:00Небольшая облачность+39°C17 %685 мм2.8 м/с5 %
    17:00Ясно и безоблачно+35°C21 %685 мм7.8 м/с21 %
    20:00Практически безоблачно+28°C26 %686 мм5.5 м/с12 %
    23:00Ясно и безоблачно+25°C32 %687 мм1.9 м/с5 %
  • 24февраля
    Суббота
    +18°
    +38°
    Практически безоблачно
    ВремяПогодаТемператураВлажностьДавлениеВетер, м/сВероятность осадков
    02:00Практически безоблачно+23°C35 %686 мм1.8 м/с4 %
    05:00Ясно и безоблачно+21°C41 %686 мм1.9 м/с3 %
    08:00Небольшая облачность+21°C40 %687 мм0.4 м/с5 %
    11:00Облачно с прояснениями+31°C18 %689 мм0.8 м/с5 %
    14:00Практически безоблачно+38°C13 %688 мм4.4 м/с2 %
    17:00Небольшая облачность+32°C19 %687 мм8.9 м/с4 %
    20:00Ясно и безоблачно+26°C31 %688 мм5.3 м/с4 %
    23:00Ясно и безоблачно+23°C36 %688 мм2.0 м/с3 %
  • 25февраля
    Воскресенье
    +20°
    +38°
    Ясно и безоблачно
    ВремяПогодаТемператураВлажностьДавлениеВетер, м/сВероятность осадков
    02:00Ясно и безоблачно+19°C44 %686 мм0.9 м/с3 %
    05:00Практически безоблачно+20°C39 %686 мм0.5 м/с5 %
    08:00Ясно и безоблачно+22°C33 %687 мм0.5 м/с5 %
    11:00Ясно и безоблачно+32°C15 %689 мм1.4 м/с5 %
    14:00Ясно и безоблачно+38°C9 %688 мм5.9 м/с5 %
    17:00Ясно и безоблачно+34°C16 %687 мм8.0 м/с5 %
    20:00Ясно и безоблачно+27°C26 %688 мм5.3 м/с3 %
    23:00Ясно и безоблачно+23°C33 %688 мм1.6 м/с5 %
  • 26февраля
    Понедельник
    +21°
    +38°
    Ясно и безоблачно
    ВремяПогодаТемператураВлажностьДавлениеВетер, м/сВероятность осадков
    02:00Практически безоблачно+21°C32 %687 мм0.8 м/с5 %
    05:00Практически безоблачно+21°C28 %686 мм0.4 м/с4 %
    08:00Практически безоблачно+23°C24 %686 мм1.7 м/с5 %
    11:00Ясно и безоблачно+34°C14 %688 мм1.7 м/с5 %
    14:00Ясно и безоблачно+37°C13 %687 мм7.8 м/с4 %
    17:00Ясно и безоблачно+32°C20 %685 мм9.1 м/с11 %
    20:00Ясно и безоблачно+26°C31 %686 мм4.7 м/с19 %
    23:00Ясно и безоблачно+23°C36 %687 мм1.9 м/с10 %
Мы используем cookies
Соглашаюсь